METAR Data
IDs: Format: Raw Decoded Include TAF

Data at: 1316 UTC 15 Jul 2020

KBDG 151255Z AUTO 35003KT 10SM 17/07 A3022 RMK AO1 T01660065
KBDG 151235Z AUTO 00000KT 10SM 18/05 A3022 RMK AO1 T01810050
KBDG 151215Z AUTO 00000KT 10SM 18/05 A3021 RMK AO1 T01750051
KBDG 151155Z AUTO 03004KT 10SM 18/05 A3021 RMK AO1 T01800045 10353 20167
KBDG 151135Z AUTO 02007KT 10SM 18/04 A3021 RMK AO1 T01800043
KBDG 151115Z AUTO 02006KT 10SM 18/03 A3020 RMK AO1 T01830034
KBDG 151055Z AUTO 03007KT 10SM 18/04 A3020 RMK AO1 T01830035
KBDG 151035Z AUTO 02007KT 10SM 17/05 A3020 RMK AO1 T01680046
KBDG 151015Z AUTO 02007KT 10SM 18/04 A3019 RMK AO1 T01830035
KBDG 150955Z AUTO 02008KT 10SM 19/04 A3019 RMK AO1 T01890037
KBDG 150935Z AUTO 04006KT 10SM 19/04 A3019 RMK AO1 T01940035
KBDG 150915Z AUTO 03006KT 10SM 20/03 A3019 RMK AO1 T01980029
KBDG 150855Z AUTO 03007KT 10SM 21/03 A3018 RMK AO1 T02090032
KBDG 150835Z AUTO 04006KT 10SM 22/03 A3018 RMK AO1 T02200033
KBDG 150815Z AUTO 11006KT 10SM 23/03 A3018 RMK AO1 T02270029
KBDG 150755Z AUTO 11005KT 10SM 23/03 A3018 RMK AO1 T02300031
KBDG 150735Z AUTO 09007KT 10SM 24/03 A3018 RMK AO1 T02400032
KBDG 150715Z AUTO 06007KT 10SM 24/03 A3018 RMK AO1 T02430031
KBDG 150655Z AUTO 03007KT 10SM 24/04 A3018 RMK AO1 T02370038 403530167
KBDG 150635Z AUTO 35007KT 10SM 23/05 A3017 RMK AO1 T02310052
KBDG 150615Z AUTO 33006KT 10SM 23/05 A3017 RMK AO1 T02290052
KBDG 150555Z AUTO 34006KT 10SM 24/06 A3017 RMK AO1 T02440055 10353 20167
KBDG 150535Z AUTO 25004KT 10SM 26/05 A3015 RMK AO1 T02560048
KBDG 150515Z AUTO 24006KT 10SM 26/05 A3014 RMK AO1 T02620047
KBDG 150455Z AUTO 22006KT 10SM 27/05 A3014 RMK AO1 T02680046
KBDG 150435Z AUTO 22008G16KT 10SM 27/04 A3014 RMK AO1 T02740042
KBDG 150415Z AUTO 22010G17KT 10SM 27/04 A3013 RMK AO1 T02730037
KBDG 150355Z AUTO 21010G15KT 10SM 27/03 A3013 RMK AO1 T02740025
KBDG 150335Z AUTO 25004KT 10SM 28/01 A3012 RMK AO1 T02820012
KBDG 150315Z AUTO 26005KT 10SM 29/00 A3011 RMK AO1 T02860001
KBDG 150255Z AUTO 25007KT 10SM 29/00 A3011 RMK AO1 T02930000
KBDG 150235Z AUTO 24004KT 10SM 30/00 A3010 RMK AO1 T03000001
KBDG 150215Z AUTO 26006KT 10SM 31/00 A3010 RMK AO1 T03110002
KBDG 150155Z AUTO 27008KT 10SM 32/00 A3010 RMK AO1 T03211002
KBDG 150135Z AUTO 24009KT 10SM 32/00 A3010 RMK AO1 T03240001
KBDG 150115Z AUTO 25009G14KT 10SM 33/00 A3010 RMK AO1 T03280002
KBDG 150055Z AUTO 26014G18KT 10SM 33/00 A3010 RMK AO1 T03311004
KBDG 150035Z AUTO 27008G18KT 10SM 33/00 A3011 RMK AO1 T03331001
KBDG 150015Z AUTO 26013G20KT 10SM 34/00 A3010 RMK AO1 T03361001
KBDG 142355Z AUTO 30010G14KT 10SM 34/00 A3012 RMK AO1 T03361002 10353 20167
KBDG 142335Z AUTO 25014G21KT 10SM 34/00 A3012 RMK AO1 T03351001
KBDG 142315Z AUTO 26013G18KT 10SM 34/00 A3013 RMK AO1 T03380002
KBDG 142255Z AUTO 26012G19KT 10SM 34/00 A3013 RMK AO1 T03370002
KBDG 142235Z AUTO 21006G21KT 10SM 33/01 A3014 RMK AO1 T03320005
KBDG 142215Z AUTO 23013G19KT 10SM 34/01 A3015 RMK AO1 T03360006
KBDG 142155Z AUTO 21009G19KT 10SM 34/01 A3015 RMK AO1 T03350009
KBDG 142135Z AUTO 22014G25KT 10SM 33/01 A3016 RMK AO1 T03320012
KBDG 142115Z AUTO 21013G22KT 10SM 34/01 A3016 RMK AO1 T03380012
KBDG 142055Z AUTO 26010KT 10SM 34/01 A3017 RMK AO1 T03350008
KBDG 142035Z AUTO 22015G22KT 190V250 10SM 33/02 A3017 RMK AO1 T03310018
KBDG 142015Z AUTO 21014G22KT 10SM 33/02 A3018 RMK AO1 T03330020
KBDG 141955Z AUTO 20014G28KT 10SM 33/02 A3019 RMK AO1 T03260023
KBDG 141935Z AUTO 19013G20KT 10SM 33/03 A3019 RMK AO1 T03260028
KBDG 141915Z AUTO 22010G22KT 10SM 32/02 A3020 RMK AO1 T03190021
KBDG 141855Z AUTO 20008G20KT 150V230 10SM 32/03 A3021 RMK AO1 T03210031
KBDG 141835Z AUTO 20005G18KT 10SM 32/04 A3021 RMK AO1 T03180039
KBDG 141815Z AUTO 22011KT 10SM 31/05 A3021 RMK AO1 T03090051
KBDG 141755Z AUTO 19010KT 10SM 30/06 A3022 RMK AO1 T03000057 10353 20167
KBDG 141735Z AUTO 19011G16KT 10SM 30/06 A3022 RMK AO1 T02970055
KBDG 141715Z AUTO 17008KT 130V200 10SM 29/06 A3022 RMK AO1 T02870059
KBDG 141655Z AUTO 19009KT 10SM 28/06 A3022 RMK AO1 T02820060
KBDG 141635Z AUTO 19004KT 10SM 28/06 A3023 RMK AO1 T02790059
KBDG 141615Z AUTO 19006KT 10SM 27/07 A3023 RMK AO1 T02730066
KBDG 141555Z AUTO 18008KT 10SM 26/07 A3023 RMK AO1 T02640074
KBDG 141535Z AUTO 16005KT 10SM 26/07 A3023 RMK AO1 T02580071
KBDG 141515Z AUTO 15005KT 10SM 25/07 A3023 RMK AO1 T02510074
KBDG 141455Z AUTO 09005KT 10SM 24/08 A3023 RMK AO1 T02410076
KBDG 141435Z AUTO 05005KT 10SM 23/08 A3023 RMK AO1 T02280078
KBDG 141415Z AUTO 04005KT 10SM 21/08 A3022 RMK AO1 T02090077
KBDG 141355Z AUTO 04006KT 10SM 19/08 A3022 RMK AO1 T01920077
KBDG 141335Z AUTO 04007KT 10SM 19/08 A3022 RMK AO1 T01930076
KBDG 141315Z AUTO 04007KT 10SM 19/08 A3021 RMK AO1 T01870076
KBDG 141255Z AUTO 03007KT 10SM 19/08 A3021 RMK AO1 T01850075
KBDG 141235Z AUTO 03005KT 10SM 19/08 A3019 RMK AO1 T01850075
KBDG 141215Z AUTO 03005KT 10SM 19/08 A3019 RMK AO1 T01880076
KBDG 141155Z AUTO 02008KT 10SM 19/08 A3019 RMK AO1 T01860076 10353 20167
KBDG 141135Z AUTO 03008KT 10SM 19/08 A3018 RMK AO1 T01890076
KBDG 141115Z AUTO 03008KT 10SM 19/08 A3018 RMK AO1 T01910075
KBDG 141055Z AUTO 02008KT 10SM 19/08 A3017 RMK AO1 T01920075
KBDG 141035Z AUTO 02008KT 10SM 19/08 A3017 RMK AO1 T01930076
KBDG 141015Z AUTO 03008KT 10SM 20/08 A3016 RMK AO1 T01990076
KBDG 140955Z AUTO 04006KT 10SM 20/07 A3017 RMK AO1 T01970073
KBDG 140935Z AUTO 03008KT 10SM 20/07 A3017 RMK AO1 T02000073
KBDG 140915Z AUTO 02007KT 10SM 21/07 A3018 RMK AO1 T02050074
KBDG 140855Z AUTO 03008KT 10SM 21/07 A3018 RMK AO1 T02060073
KBDG 140835Z AUTO 02009KT 10SM 21/07 A3018 RMK AO1 T02080074
KBDG 140815Z AUTO 03008KT 10SM 21/08 A3017 RMK AO1 T02130075
KBDG 140755Z AUTO 02008KT 10SM 22/07 A3017 RMK AO1 T02240072
KBDG 140735Z AUTO 04010KT 10SM 23/07 A3017 RMK AO1 T02330072
KBDG 140715Z AUTO 04010KT 10SM 24/07 A3018 RMK AO1 T02390071
KBDG 140655Z AUTO 06012KT 10SM 24/07 A3018 RMK AO1 T02440071 403530167
KBDG 140635Z AUTO 06011G20KT 10SM 25/07 A3017 RMK AO1 T02500068
KBDG 140615Z AUTO 06014KT 10SM 26/06 A3016 RMK AO1 T02580059
KBDG 140555Z AUTO 05017G22KT 10SM 26/06 A3016 RMK AO1 T02570057 10353 20167
KBDG 140535Z AUTO 05013G17KT 10SM 25/06 A3015 RMK AO1 T02530060
KBDG 140515Z AUTO 04015KT 10SM 26/06 A3015 RMK AO1 T02550057
KBDG 140455Z AUTO 05010KT 10SM 26/04 A3014 RMK AO1 T02590041
KBDG 140435Z AUTO 07006KT 10SM 26/03 A3013 RMK AO1 T02640028
KBDG 140415Z AUTO 00000KT 10SM 28/02 A3012 RMK AO1 T02840024
KBDG 140355Z AUTO 00000KT 10SM 29/03 A3011 RMK AO1 T02860025
KBDG 140335Z AUTO 22004KT 10SM 29/03 A3010 RMK AO1 T02880025
KBDG 140315Z AUTO 22006KT 10SM 29/03 A3010 RMK AO1 T02940025
KBDG 140255Z AUTO 23008KT 10SM 30/03 A3009 RMK AO1 T02970027
KBDG 140235Z AUTO 22008G14KT 10SM 31/02 A3009 RMK AO1 T03060024
KBDG 140215Z AUTO 24010G15KT 10SM 32/02 A3008 RMK AO1 T03160018
KBDG 140155Z AUTO 24011G17KT 10SM 32/02 A3008 RMK AO1 T03210024
KBDG 140135Z AUTO 25011KT 10SM 32/02 A3007 RMK AO1 T03210022